This is the latest recevied weather packets stored in our database for station/object KSL2-WX. If no packets are shown the sender has not sent any weather packets the latest 10 day(s).
| Time | Temp. | Humidity | Pressure | Rain* | Wind** | Luminosity | Snow |
|---|---|---|---|---|---|---|---|
| 1788704431 | 23.89° C | 39% | 1011.9 hPa | - | - | - | - |
| 1788700640 | 25° C | 36% | 1012 hPa | - | - | - | - |
| 1788697039 | 25.56° C | 35% | 1012.2 hPa | - | - | - | - |
| 1788693439 | 26.11° C | 35% | 1012.4 hPa | - | - | - | - |
| 1788689840 | 25.56° C | 36% | 1013 hPa | - | - | - | - |
| 1788686239 | 25.56° C | 37% | 1013.7 hPa | - | - | - | - |
| 1788682639 | 24.44° C | 40% | 1014.7 hPa | - | - | - | - |
| 1788679039 | 22.78° C | 43% | 1015.6 hPa | - | - | - | - |
| 1788675439 | 21.67° C | 47% | 1016.4 hPa | - | - | - | - |
| 1788671839 | 18.89° C | 56% | 1017 hPa | - | - | - | - |
| 1788668239 | 13.89° C | 77% | 1017.8 hPa | - | - | - | - |
| 1788664640 | 11.11° C | 86% | 1018.5 hPa | - | - | - | - |
| 1788661039 | 10.56° C | 87% | 1018.6 hPa | - | - | - | - |
| 1788657439 | 10.56° C | 86% | 1018.8 hPa | - | - | - | - |
| 1788653840 | 11.11° C | 84% | 1018.9 hPa | - | - | - | - |
| 1788650272 | 12.22° C | 82% | 1018.9 hPa | - | - | - | - |
| 1788646639 | 12.78° C | 82% | 1019.2 hPa | - | - | - | - |
| 1788643039 | 13.33° C | 80% | 1019.1 hPa | - | - | - | - |
| 1788639439 | 13.89° C | 79% | 1019.8 hPa | - | - | - | - |
| 1788635839 | 14.44° C | 77% | 1019.7 hPa | - | - | - | - |
| 1788632239 | 15.56° C | 75% | 1020 hPa | - | - | - | - |
| 1788628639 | 16.67° C | 71% | 1019.1 hPa | - | - | - | - |
| 1788625039 | 18.89° C | 64% | 1018.2 hPa | - | - | - | - |
| 1788621439 | 20.56° C | 53% | 1017.4 hPa | - | - | - | - |
| 1788617839 | 22.22° C | 47% | 1017.1 hPa | - | - | - | - |
* Rain since midnight (hover to see other rain measurements)
** Current wind speed in m/s (hover to see current wind gust speed)